Time;durP1;ratioP1;P1;durP2;ratioP2;P2;SDS_P1;SDS_P2;PMS_P1;PMS_P2;Temp;Humidity;BMP_temperature;BMP_pressure;BME280_temperature;BME280_humidity;BME280_pressure;Samples;Min_cycle;Max_cycle;Signal;HPM_P1;HPM_P2
2022/12/01 00:01:20;;;;;;;35.65;15.75;;;6.00;58.80;;;4.31;63.28;102484.16;12165559;19;20018;-87
2022/12/01 00:05:22;;;;;;;30.30;13.85;;;5.80;58.70;;;4.30;63.22;102479.88;12171381;19;20010;-87
2022/12/01 00:13:47;;;;;;;32.15;15.48;;;5.80;58.70;;;4.08;63.04;102463.50;12165539;19;20014;-87
2022/12/01 00:17:49;;;;;;;37.38;16.88;;;5.90;58.70;;;4.20;63.28;102483.31;12168207;19;20826;-86
2022/12/01 00:21:51;;;;;;;34.05;15.52;;;5.70;58.60;;;4.09;63.17;102464.38;12165058;19;20029;-86
2022/12/01 00:25:53;;;;;;;32.35;16.27;;;5.60;58.60;;;4.14;63.13;102483.31;12168284;19;20018;-86
2022/12/01 00:29:55;;;;;;;34.10;14.40;;;5.60;58.70;;;4.19;63.30;102489.34;12160737;19;20014;-86
2022/12/01 00:33:56;;;;;;;28.27;14.00;;;5.60;58.70;;;3.77;63.09;102408.34;12165304;19;20024;-87
2022/12/01 00:37:58;;;;;;;29.20;14.57;;;5.60;58.70;;;4.11;63.08;102476.44;12169577;19;20029;-87
2022/12/01 00:42:00;;;;;;;30.65;13.40;;;5.60;58.70;;;4.11;63.27;102481.59;12171484;19;20018;-87
2022/12/01 00:46:02;;;;;;;35.85;13.98;;;5.60;58.80;;;3.86;63.12;102426.47;12176401;19;20378;-87
2022/12/01 00:50:05;;;;;;;32.10;13.90;;;5.60;58.70;;;4.05;63.12;102468.69;12172783;19;20456;-86
2022/12/01 00:54:07;;;;;;;32.30;13.88;;;5.60;58.80;;;4.17;63.31;102493.66;12164358;19;20014;-86
2022/12/01 00:58:08;;;;;;;29.27;12.25;;;5.60;58.70;;;4.22;63.40;102505.72;12159614;19;20021;-86
2022/12/01 01:02:12;;;;;;;33.75;15.15;;;5.60;58.70;;;4.17;63.21;102491.94;12156412;19;20029;-86
2022/12/01 01:06:14;;;;;;;36.03;13.73;;;5.90;58.80;;;4.06;63.20;102488.50;12163804;19;20302;-86
2022/12/01 01:10:16;;;;;;;27.90;13.00;;;5.90;58.80;;;4.19;63.34;102502.28;12159195;19;20391;-86
2022/12/01 01:14:19;;;;;;;29.00;14.57;;;5.60;58.70;;;4.21;63.19;102509.19;12160168;19;20450;-86
2022/12/01 01:18:21;;;;;;;31.55;14.23;;;5.80;58.80;;;4.12;63.28;102495.38;12161165;19;20475;-86
2022/12/01 01:22:22;;;;;;;28.83;12.93;;;5.60;58.60;;;4.04;63.15;102490.19;12158257;19;20025;-86
2022/12/01 01:26:29;;;;;;;29.40;12.25;;;5.80;58.80;;;4.11;63.31;102504.88;12162041;19;20098;-86
2022/12/01 01:30:31;;;;;;;30.58;13.65;;;5.60;58.70;;;4.06;63.15;102495.38;12161814;19;20015;-86
2022/12/01 01:34:33;;;;;;;42.00;16.65;;;5.60;58.70;;;3.90;63.33;102461.75;12160778;19;20390;-86
2022/12/01 01:38:35;;;;;;;31.17;14.13;;;5.50;58.70;;;3.99;63.13;102487.59;12164652;19;20010;-86
2022/12/01 01:42:37;;;;;;;32.63;13.52;;;5.50;58.60;;;4.09;63.30;102503.13;12154454;19;20015;-86
2022/12/01 01:46:39;;;;;;;31.67;13.90;;;5.50;58.70;;;4.05;63.01;102499.69;12160170;19;20043;-86
2022/12/01 01:50:41;;;;;;;32.65;15.50;;;5.50;58.70;;;3.96;63.20;102492.78;12154293;19;20496;-86
2022/12/01 01:54:48;;;;;;;35.95;16.88;;;5.50;58.70;;;3.96;63.14;102490.19;12152202;19;20990;-86
2022/12/01 01:58:52;;;;;;;37.58;15.20;;;5.50;58.70;;;4.02;63.07;102501.41;12160984;19;20018;-86
2022/12/01 02:02:56;;;;;;;33.15;14.07;;;5.50;58.70;;;3.98;63.34;102511.75;12150956;19;20022;-86
2022/12/01 02:06:58;;;;;;;37.25;15.93;;;5.50;58.70;;;3.98;63.13;102503.97;12154990;19;20019;-86
2022/12/01 02:11:47;;;;;;;34.05;16.40;;;5.70;58.80;;;3.97;63.15;102517.78;12155577;19;20014;-86
2022/12/01 02:16:13;;;;;;;39.05;16.77;;;5.40;58.60;;;3.89;63.01;102503.09;12155980;19;20308;-86
2022/12/01 02:20:55;;;;;;;33.58;14.10;;;5.30;58.70;;;3.75;63.11;102482.41;12154242;19;20022;-86
2022/12/01 02:25:19;;;;;;;24.55;11.70;;;5.30;58.70;;;3.90;63.30;102494.50;12146815;19;20018;-87
2022/12/01 02:29:48;;;;;;;33.38;13.68;;;5.30;58.70;;;3.89;63.14;102492.75;12157885;19;20267;-86
2022/12/01 02:33:51;;;;;;;31.55;12.43;;;5.30;58.80;;;3.92;63.06;102497.97;12159489;19;20018;-86
2022/12/01 02:38:06;;;;;;;35.47;14.40;;;5.30;58.80;;;3.89;63.18;102498.81;12163703;19;20495;-86
2022/12/01 02:42:49;;;;;;;41.25;18.70;;;5.30;58.80;;;3.80;63.10;102488.44;12159179;19;20006;-86
2022/12/01 02:47:09;;;;;;;47.92;18.40;;;5.30;58.80;;;3.76;63.19;102484.16;12154586;19;20399;-86
2022/12/01 02:51:29;;;;;;;44.67;19.15;;;5.30;58.80;;;3.72;63.12;102488.44;12151617;19;20595;-86
2022/12/01 02:55:31;;;;;;;39.10;18.15;;;5.50;58.90;;;3.73;63.24;102479.84;12153337;19;20410;-86
2022/12/01 02:59:33;;;;;;;40.30;17.05;;;5.20;58.80;;;3.73;63.24;102490.19;12154040;19;20075;-86
2022/12/01 03:03:44;;;;;;;41.63;18.10;;;5.30;58.90;;;3.76;63.06;102489.31;12155534;19;20038;-86
2022/12/01 03:08:13;;;;;;;41.13;18.27;;;5.20;58.80;;;3.67;63.17;102485.00;12157853;19;20359;-86
2022/12/01 03:13:32;;;;;;;34.28;15.15;;;5.20;58.80;;;3.63;63.10;102491.00;12152866;19;20014;-86
2022/12/01 03:18:03;;;;;;;35.30;16.23;;;5.10;58.80;;;3.45;63.18;102453.09;12153465;19;20439;-86
2022/12/01 03:22:23;;;;;;;33.65;14.18;;;5.10;58.90;;;3.52;63.30;102466.88;12147507;19;20010;-86
2022/12/01 03:26:30;;;;;;;31.02;14.13;;;5.10;58.90;;;3.67;63.15;102490.19;12151460;19;20045;-86
2022/12/01 03:30:37;;;;;;;38.40;15.82;;;5.10;58.90;;;3.66;63.44;102495.31;12153383;19;20022;-86
2022/12/01 03:34:45;;;;;;;38.80;17.63;;;5.30;59.00;;;3.64;63.08;102489.28;12154274;19;20014;-86
2022/12/01 03:38:55;;;;;;;38.85;16.92;;;5.10;58.90;;;3.45;63.00;102463.41;12153485;19;20035;-86
2022/12/01 03:43:03;;;;;;;34.05;16.00;;;5.10;58.80;;;3.57;63.31;102485.84;12146002;19;20035;-86
2022/12/01 03:47:20;;;;;;;33.00;15.82;;;5.10;58.80;;;3.58;63.41;102486.69;12152471;19;20383;-86
2022/12/01 03:51:42;;;;;;;34.90;16.63;;;5.20;58.80;;;3.60;63.19;102491.00;12151474;19;20402;-86
2022/12/01 03:55:52;;;;;;;40.28;17.55;;;5.10;58.80;;;3.57;63.06;102485.84;12151611;19;20043;-86
2022/12/01 03:59:55;;;;;;;44.90;18.63;;;5.00;58.80;;;3.59;63.17;102493.56;12148411;19;20010;-87
2022/12/01 04:04:11;;;;;;;38.22;18.17;;;5.00;58.80;;;3.57;63.34;102495.31;12147746;19;20036;-86
2022/12/01 04:08:13;;;;;;;48.78;21.67;;;5.10;58.90;;;3.54;63.17;102485.84;12155747;19;20274;-86
2022/12/01 04:12:28;;;;;;;42.30;19.23;;;5.00;58.90;;;3.26;63.21;102438.41;12161860;19;20134;-86
2022/12/01 04:16:30;;;;;;;34.80;18.73;;;5.00;58.90;;;3.40;63.42;102474.59;12165895;19;20022;-86
2022/12/01 04:20:32;;;;;;;37.88;17.88;;;5.00;58.90;;;3.49;63.33;102485.81;12161292;19;20098;-86
2022/12/01 04:24:33;;;;;;;41.50;18.13;;;5.00;58.90;;;3.49;63.35;102493.56;12162218;19;20022;-86
2022/12/01 04:28:35;;;;;;;38.35;18.05;;;5.00;58.90;;;3.53;63.28;102487.53;12159448;19;20042;-86
2022/12/01 04:32:42;;;;;;;35.70;17.60;;;5.00;58.80;;;3.41;63.36;102472.03;12159383;19;20414;-86
2022/12/01 04:36:44;;;;;;;31.38;15.73;;;5.00;58.80;;;3.52;63.38;102492.72;12165495;19;20387;-86
2022/12/01 04:40:46;;;;;;;42.58;20.40;;;5.20;58.90;;;3.36;63.44;102467.72;12157320;19;20026;-86
2022/12/01 04:44:48;;;;;;;31.88;16.63;;;5.00;58.80;;;3.29;63.30;102453.91;12162230;19;20066;-86
2022/12/01 04:48:50;;;;;;;36.67;17.13;;;5.00;58.80;;;3.38;63.23;102484.94;12159965;19;20931;-86
2022/12/01 04:52:52;;;;;;;35.90;17.65;;;5.00;58.80;;;3.46;63.48;102503.91;12157770;19;20283;-86
2022/12/01 04:56:54;;;;;;;34.67;17.05;;;5.00;58.80;;;3.50;63.21;102500.44;12158476;19;20308;-86
2022/12/01 05:01:10;;;;;;;29.48;14.82;;;5.00;58.80;;;3.46;63.24;102503.91;12146030;19;21111;-86
2022/12/01 05:05:13;;;;;;;36.58;15.60;;;5.10;58.90;;;3.58;63.25;102522.84;12148969;19;20023;-86
2022/12/01 05:09:15;;;;;;;43.38;19.33;;;5.00;58.80;;;3.59;63.11;102520.25;12152946;19;20030;-86
2022/12/01 05:13:18;;;;;;;36.65;17.52;;;5.10;58.80;;;3.54;63.33;102514.25;12142414;19;20022;-86
2022/12/01 05:17:20;;;;;;;41.55;18.38;;;5.10;58.80;;;3.48;63.37;102502.19;12153520;19;20039;-86
2022/12/01 05:21:22;;;;;;;35.10;17.25;;;5.20;58.80;;;3.50;63.39;102505.59;12155268;19;20023;-86
2022/12/01 05:25:24;;;;;;;35.35;17.10;;;5.10;59.00;;;3.51;63.44;102514.22;12150597;19;20019;-86
2022/12/01 05:29:26;;;;;;;39.25;16.83;;;5.00;58.70;;;3.51;63.27;102517.69;12145287;19;20019;-86
2022/12/01 05:33:28;;;;;;;39.20;16.95;;;5.00;58.80;;;3.33;63.25;102486.63;12137008;19;20027;-86
2022/12/01 05:37:33;;;;;;;37.53;16.27;;;5.00;58.80;;;3.61;63.36;102528.88;12143768;19;20060;-86
2022/12/01 05:41:34;;;;;;;41.65;19.92;;;5.40;58.90;;;3.52;63.27;102515.97;12139104;19;20026;-87
2022/12/01 05:45:36;;;;;;;40.72;19.50;;;5.10;58.70;;;3.43;63.34;102511.63;12154141;19;20018;-86
2022/12/01 05:49:38;;;;;;;40.78;19.80;;;5.10;58.80;;;3.43;63.24;102508.16;12155677;19;20019;-86
2022/12/01 05:53:40;;;;;;;36.65;17.13;;;5.20;58.80;;;3.46;63.34;102519.38;12160080;19;20018;-86
2022/12/01 05:57:41;;;;;;;32.97;15.40;;;5.00;58.70;;;3.50;63.29;102523.69;12154725;19;20015;-87
2022/12/01 06:01:43;;;;;;;36.83;17.98;;;5.20;58.80;;;3.43;63.36;102513.31;11992070;19;3104767;-86
2022/12/01 06:05:45;;;;;;;37.05;17.90;;;5.00;58.70;;;3.50;63.18;102531.44;12153734;19;20011;-86
2022/12/01 06:09:46;;;;;;;40.13;18.75;;;5.00;58.70;;;3.55;63.38;102541.78;12153609;19;20460;-86
2022/12/01 06:13:48;;;;;;;37.25;17.38;;;5.00;58.70;;;3.43;63.26;102523.66;12154667;19;20035;-86
2022/12/01 06:17:50;;;;;;;29.33;15.73;;;5.00;58.70;;;3.43;63.27;102519.38;12156541;19;20019;-87
2022/12/01 06:21:51;;;;;;;34.53;17.83;;;5.00;58.70;;;3.53;63.39;102536.59;12155535;19;20018;-86
2022/12/01 06:25:53;;;;;;;33.00;17.65;;;5.00;58.70;;;3.38;63.35;102515.91;12156186;19;20371;-86
2022/12/01 06:29:55;;;;;;;35.38;16.00;;;5.20;58.80;;;3.55;63.41;102537.47;12155208;19;20733;-86
2022/12/01 06:33:56;;;;;;;38.08;17.65;;;5.10;58.70;;;3.04;63.21;102446.09;12150165;19;20406;31
2022/12/01 06:37:58;;;;;;;39.10;17.45;;;5.30;58.80;;;3.44;63.28;102526.25;12140476;19;20022;-86
2022/12/01 06:42:00;;;;;;;40.72;19.17;;;5.30;58.80;;;3.31;63.29;102499.53;12144555;19;20018;-86
2022/12/01 06:46:03;;;;;;;39.45;17.90;;;5.10;58.60;;;3.26;63.31;102484.88;12157859;19;20394;-86
2022/12/01 06:50:08;;;;;;;47.65;23.33;;;5.10;58.60;;;3.60;63.29;102546.97;12154298;19;20559;-87
2022/12/01 06:54:11;;;;;;;39.38;19.33;;;5.10;58.60;;;3.62;63.44;102555.56;12161534;19;20031;-85
2022/12/01 06:58:13;;;;;;;46.05;21.30;;;5.10;58.60;;;3.62;63.35;102555.56;12156297;19;20033;-87
2022/12/01 07:02:15;;;;;;;47.65;23.17;;;5.10;58.50;;;3.60;63.46;102557.31;12161186;19;20021;-85
2022/12/01 07:06:17;;;;;;;56.22;24.88;;;5.10;58.50;;;3.32;63.37;102511.59;12164856;19;20030;-86
2022/12/01 07:10:19;;;;;;;46.70;20.75;;;5.40;58.60;;;3.59;63.30;102566.75;12162698;19;20137;-85
2022/12/01 07:14:26;;;;;;;53.30;23.33;;;5.10;58.50;;;3.57;63.40;102553.00;12166735;19;20011;-86
2022/12/01 07:18:28;;;;;;;50.65;22.25;;;5.00;58.50;;;3.46;63.19;102549.53;12157535;19;20473;-86
2022/12/01 07:22:30;;;;;;;50.33;23.17;;;5.00;58.50;;;3.44;63.40;102552.09;12166582;19;20046;-85
2022/12/01 07:26:32;;;;;;;56.65;22.92;;;5.00;58.50;;;3.59;63.25;102571.06;12171903;19;20022;-86
2022/12/01 07:30:34;;;;;;;56.35;24.08;;;5.00;58.50;;;3.48;63.36;102551.25;12170103;19;20050;-86
2022/12/01 07:34:35;;;;;;;48.92;22.70;;;5.30;58.60;;;3.60;63.42;102572.81;12169425;19;20579;-86
2022/12/01 07:38:38;;;;;;;57.60;24.40;;;5.00;58.50;;;3.52;63.38;102554.69;12165684;19;20019;-85
2022/12/01 07:42:41;;;;;;;57.15;25.30;;;5.00;58.50;;;3.38;63.20;102521.09;12165227;19;20408;-85
2022/12/01 07:46:42;;;;;;;54.38;22.95;;;5.10;58.50;;;3.43;63.25;102540.03;12171065;19;20390;-85
2022/12/01 07:50:44;;;;;;;65.10;28.50;;;5.10;58.50;;;3.21;63.39;102510.66;12162024;19;20493;-85
2022/12/01 07:54:46;;;;;;;64.70;27.30;;;5.30;58.60;;;3.64;63.38;102587.44;12160418;19;20040;-86
2022/12/01 07:58:48;;;;;;;64.82;27.42;;;5.20;58.50;;;3.59;63.29;102578.81;12164293;19;20021;-85
2022/12/01 08:02:50;;;;;;;60.13;24.27;;;5.10;58.50;;;3.63;63.40;102589.19;12158476;19;20474;-86
2022/12/01 08:06:52;;;;;;;64.75;27.95;;;5.10;58.50;;;3.63;63.47;102596.94;12155452;19;20014;-85
2022/12/01 08:11:00;;;;;;;59.00;26.10;;;5.10;58.50;;;3.27;63.19;102527.94;12151746;19;20630;-86
2022/12/01 08:15:03;;;;;;;61.33;24.95;;;5.10;58.50;;;3.49;63.31;102565.88;12151679;19;20018;-86
2022/12/01 08:19:04;;;;;;;67.43;28.23;;;5.10;58.50;;;3.65;63.44;102586.63;12167070;19;20044;-85
2022/12/01 08:23:07;;;;;;;72.13;30.77;;;5.10;58.50;;;3.65;63.38;102586.63;12158607;19;20038;-86
2022/12/01 08:27:09;;;;;;;66.32;28.35;;;5.10;58.80;;;3.49;63.50;102565.03;12166271;19;20046;-85
2022/12/01 08:31:19;;;;;;;62.53;26.73;;;5.10;58.50;;;3.64;63.29;102590.88;12169128;19;20760;-86
2022/12/01 08:35:22;;;;;;;80.05;31.55;;;5.10;58.50;;;3.32;63.14;102539.09;12173808;19;20010;-85
2022/12/01 08:39:24;;;;;;;68.18;29.30;;;5.10;58.40;;;3.63;63.31;102598.66;12161207;19;20407;-85
2022/12/01 08:43:26;;;;;;;58.03;24.85;;;5.10;58.40;;;3.33;63.46;102541.72;12164806;19;20018;-85
2022/12/01 08:47:28;;;;;;;75.00;31.15;;;5.10;58.50;;;3.67;63.23;102588.34;12191011;19;20025;-85
2022/12/01 08:51:30;;;;;;;74.63;32.55;;;5.10;58.50;;;3.67;63.44;102595.22;12168860;19;20898;-86
2022/12/01 08:55:32;;;;;;;72.05;29.80;;;5.10;58.40;;;3.59;63.33;102578.81;12161724;19;20021;-85
2022/12/01 08:59:34;;;;;;;65.88;28.65;;;5.10;58.40;;;3.65;63.34;102590.06;12161958;19;20018;-85
2022/12/01 09:03:37;;;;;;;59.83;27.38;;;5.20;58.40;;;3.63;63.37;102585.72;12170677;19;20026;-85
2022/12/01 09:07:41;;;;;;;56.08;25.92;;;5.10;58.30;;;3.71;63.57;102604.72;12167159;19;20818;-85
2022/12/01 09:11:44;;;;;;;69.88;31.48;;;5.30;58.50;;;3.58;63.17;102583.13;12172800;19;20023;-85
2022/12/01 09:15:56;;;;;;;70.60;29.95;;;5.10;58.30;;;3.65;63.27;102596.94;12166809;19;20598;-85
2022/12/01 09:19:58;;;;;;;55.97;26.33;;;5.10;58.30;;;3.61;63.24;102600.34;12170518;19;20426;-85
2022/12/01 09:24:01;;;;;;;62.15;28.55;;;5.20;58.40;;;3.38;63.40;102543.47;12174147;19;20496;-85
2022/12/01 09:28:03;;;;;;;59.08;27.25;;;5.20;58.40;;;3.65;63.47;102597.81;12166130;19;20354;-86
2022/12/01 09:32:05;;;;;;;69.82;30.33;;;5.50;58.50;;;3.66;63.31;102593.50;12163755;19;20487;-87
2022/12/01 09:36:11;;;;;;;62.22;28.17;;;5.20;58.40;;;3.55;63.12;102577.94;12175816;19;20749;-86
2022/12/01 09:40:14;;;;;;;48.17;22.00;;;5.20;58.40;;;3.68;63.20;102584.03;12170264;19;20030;-87
2022/12/01 09:44:23;;;;;;;51.28;23.95;;;5.20;58.50;;;3.74;63.43;102592.66;12158758;19;20014;-85
2022/12/01 09:48:41;;;;;;;59.40;26.77;;;5.20;58.40;;;3.74;63.46;102586.63;12167327;19;20014;-86
2022/12/01 09:52:52;;;;;;;48.55;24.23;;;5.20;58.30;;;3.71;63.42;102584.03;12155308;19;20363;-86
2022/12/01 09:56:54;;;;;;;54.13;25.60;;;5.20;58.40;;;3.66;63.36;102568.50;12158915;19;20018;-87
2022/12/01 10:00:57;;;;;;;51.08;24.48;;;5.20;58.30;;;3.70;63.41;102569.38;12158675;19;20622;-86
2022/12/01 10:05:05;;;;;;;61.30;27.98;;;5.40;58.30;;;3.76;63.27;102572.00;12162529;19;20367;-86
2022/12/01 10:09:38;;;;;;;55.67;25.48;;;5.30;58.20;;;3.76;63.12;102574.59;12171650;19;20022;-85
2022/12/01 10:13:40;;;;;;;51.22;24.83;;;5.30;58.30;;;3.69;63.35;102555.59;12171163;19;20045;-86
2022/12/01 10:17:56;;;;;;;48.78;25.50;;;5.30;58.30;;;3.75;63.25;102567.66;12165668;19;20019;-85
2022/12/01 10:23:05;;;;;;;53.40;24.30;;;5.30;58.30;;;3.78;63.20;102565.13;12167652;19;20542;-86
2022/12/01 10:27:25;;;;;;;53.08;24.50;;;5.30;58.30;;;3.83;63.35;102567.69;12168106;19;20137;-86
2022/12/01 10:31:50;;;;;;;46.88;23.08;;;5.30;58.30;;;3.84;63.34;102567.72;12166863;19;20026;-86
2022/12/01 10:35:52;;;;;;;40.10;21.15;;;5.30;58.20;;;3.82;63.36;102569.44;12175818;19;20018;-86
2022/12/01 10:39:56;;;;;;;44.90;22.35;;;5.30;58.30;;;3.84;63.43;102565.13;12171674;19;20599;-86
2022/12/01 10:44:01;;;;;;;41.70;21.58;;;5.40;58.40;;;3.92;63.38;102565.16;12174929;19;20019;-86
2022/12/01 10:48:20;;;;;;;43.55;21.58;;;5.40;58.30;;;3.92;63.17;102555.69;12169786;19;20026;-86
2022/12/01 10:52:40;;;;;;;45.50;23.35;;;5.40;58.10;;;3.89;63.13;102545.34;12172350;19;20026;-86
2022/12/01 10:56:48;;;;;;;47.42;23.30;;;5.50;58.00;;;3.91;63.16;102547.91;12160190;19;20029;-86
2022/12/01 11:01:00;;;;;;;45.80;23.65;;;5.70;58.10;;;3.80;63.07;102540.13;12157999;19;20015;-85
2022/12/01 11:05:26;;;;;;;43.70;22.50;;;5.40;57.90;;;3.85;63.29;102530.66;12158819;19;20363;-86
2022/12/01 11:09:29;;;;;;;;;;;5.40;58.00;;;3.85;63.38;102529.81;12151507;19;20423;-85
2022/12/01 11:13:35;;;;;;;41.22;19.92;;;5.40;58.10;;;3.81;63.41;102525.47;12144344;19;20372;-85
2022/12/01 11:17:41;;;;;;;40.25;18.42;;;5.40;58.00;;;3.88;63.20;102532.41;12158474;19;20042;-86
2022/12/01 11:21:52;;;;;;;46.97;22.38;;;5.50;58.10;;;3.80;63.03;102527.22;12164284;19;20038;-86
2022/12/01 11:26:19;;;;;;;37.15;19.58;;;5.60;58.00;;;3.92;63.29;102542.75;12165271;19;20082;-86
2022/12/01 11:30:28;;;;;;;33.78;16.55;;;5.40;57.90;;;3.90;63.18;102526.38;12152398;19;20018;-85
2022/12/01 11:34:37;;;;;;;41.33;22.33;;;5.40;58.00;;;3.94;63.17;102528.13;12154783;19;20379;-85
2022/12/01 11:38:38;;;;;;;36.35;19.70;;;5.50;57.90;;;3.87;63.12;102521.22;12158812;19;20018;-85
2022/12/01 11:42:45;;;;;;;36.33;17.65;;;5.50;58.30;;;3.89;63.17;102519.50;12163281;19;20041;-86
2022/12/01 11:46:47;;;;;;;43.30;21.73;;;5.50;58.00;;;3.92;63.38;102523.81;12163934;19;20046;-86
2022/12/01 11:51:20;;;;;;;36.67;19.58;;;5.50;57.90;;;3.95;63.13;102528.97;12169848;19;20352;-86
2022/12/01 11:55:26;;;;;;;41.53;20.75;;;5.50;57.80;;;3.94;63.07;102527.22;12160111;19;20472;-87
2022/12/01 11:59:28;;;;;;;37.28;19.70;;;5.50;57.80;;;3.88;63.17;102515.16;12152145;19;20306;-86
2022/12/01 12:04:06;;;;;;;42.00;19.65;;;5.50;57.90;;;3.98;63.21;102534.16;12148400;19;20023;-85
2022/12/01 12:08:35;;;;;;;41.45;21.98;;;5.50;58.00;;;4.03;63.07;102536.75;12148108;19;20038;-85
2022/12/01 12:13:02;;;;;;;47.33;24.45;;;5.50;57.90;;;3.96;63.03;102517.75;12156319;19;20292;-85
2022/12/01 12:17:32;;;;;;;44.85;21.55;;;5.50;57.70;;;4.05;63.26;102530.72;12145811;19;20306;-85
2022/12/01 12:22:00;;;;;;;37.13;20.17;;;5.50;57.80;;;4.03;63.19;102526.41;12148355;19;20295;-86
2022/12/01 12:26:35;;;;;;;34.55;19.15;;;5.50;57.90;;;4.03;63.02;102535.00;12140518;19;20896;-85
2022/12/01 12:30:54;;;;;;;34.63;18.67;;;5.50;57.90;;;4.06;63.13;102526.41;12156053;19;20078;-85
2022/12/01 12:35:17;;;;;;;37.80;19.55;;;5.50;58.00;;;4.08;63.07;102520.38;12156753;19;20432;-85
2022/12/01 12:39:49;;;;;;;37.70;19.65;;;5.60;57.90;;;4.11;63.05;102528.13;12160805;19;20018;-85
2022/12/01 12:44:13;;;;;;;41.40;20.08;;;5.60;57.90;;;4.13;63.11;102515.19;12145284;19;20019;-85
2022/12/01 12:48:38;;;;;;;34.17;19.15;;;5.60;57.80;;;4.13;63.00;102526.41;12151655;19;20867;-84
2022/12/01 12:52:46;;;;;;;32.20;17.73;;;5.60;57.80;;;4.09;63.10;102519.50;12153463;19;20018;-85
2022/12/01 12:56:59;;;;;;;34.85;17.60;;;5.60;57.90;;;4.04;62.92;102495.38;12149771;19;20292;-84
2022/12/01 13:01:20;;;;;;;32.58;17.33;;;5.70;57.90;;;4.07;62.98;102497.09;12154241;19;20015;-84
2022/12/01 13:05:35;;;;;;;36.63;18.90;;;5.70;57.80;;;4.20;63.17;102519.50;12134829;19;20728;-84
2022/12/01 13:09:51;;;;;;;30.80;16.17;;;5.70;57.80;;;4.19;63.00;102521.25;12155545;19;20026;-84
2022/12/01 13:14:21;;;;;;;33.05;17.58;;;5.70;57.70;;;4.19;62.94;102510.03;12150075;19;20391;-84
2022/12/01 13:18:51;;;;;;;29.23;16.35;;;5.70;57.70;;;4.11;63.02;102496.25;12155316;19;20390;-84
2022/12/01 13:22:54;;;;;;;30.60;17.42;;;5.80;57.80;;;4.09;63.04;102483.31;12146984;19;20044;-85
2022/12/01 13:27:05;;;;;;;35.83;17.70;;;5.90;57.90;;;4.31;63.04;102515.19;12154373;19;20387;-84
2022/12/01 13:31:11;;;;;;;34.00;17.38;;;5.80;57.70;;;4.34;63.15;102506.56;12147359;19;20691;-84
2022/12/01 13:35:36;;;;;;;31.83;16.63;;;5.80;57.60;;;4.26;63.02;102497.97;12149157;19;20738;-84
2022/12/01 13:39:40;;;;;;;27.42;15.40;;;5.80;57.60;;;4.23;62.93;102493.66;12150652;19;20034;-84
2022/12/01 13:44:00;;;;;;;35.95;17.80;;;5.90;57.70;;;4.38;62.97;102519.50;12147509;19;20022;-84
2022/12/01 13:48:04;;;;;;;35.22;18.63;;;6.10;57.60;;;4.39;63.03;102510.88;12154560;19;20327;-84
2022/12/01 13:52:21;;;;;;;33.03;17.67;;;5.80;57.50;;;4.41;62.86;102521.25;12155067;19;20027;-84
2022/12/01 13:56:33;;;;;;;36.53;18.88;;;5.90;57.60;;;4.41;63.07;102519.50;12147134;19;20417;-85
2022/12/01 14:00:34;;;;;;;28.38;15.60;;;6.10;57.60;;;4.39;63.04;102526.41;12147305;19;20966;-84
2022/12/01 14:04:36;;;;;;;29.70;14.82;;;5.80;57.60;;;4.40;63.04;102517.78;12149363;19;20414;-84
2022/12/01 14:08:48;;;;;;;30.85;16.20;;;5.90;57.70;;;4.46;62.85;102521.25;12149814;19;20400;-84
2022/12/01 14:12:54;;;;;;;33.05;17.70;;;6.10;57.60;;;4.45;62.98;102507.41;12148687;19;20406;-85
2022/12/01 14:16:59;;;;;;;28.70;15.38;;;6.00;57.40;;;4.44;62.85;102509.16;12150120;19;20023;-85
2022/12/01 14:21:05;;;;;;;31.48;15.45;;;5.90;57.80;;;4.11;62.92;102452.31;12145795;19;20916;-85
2022/12/01 14:25:22;;;;;;;30.70;17.00;;;5.90;57.40;;;4.45;62.83;102504.84;12152866;19;20469;-85
2022/12/01 14:29:37;;;;;;;31.23;16.83;;;6.00;57.40;;;4.44;62.77;102503.97;12149108;19;20609;-86
2022/12/01 14:33:38;;;;;;;25.43;13.77;;;5.90;57.50;;;4.48;62.98;102515.19;12144210;19;20023;-85
2022/12/01 14:37:47;;;;;;;29.48;14.90;;;6.00;57.50;;;4.42;62.76;102502.25;12137800;19;20300;-86
2022/12/01 14:42:02;;;;;;;29.05;16.75;;;6.20;57.50;;;4.47;62.81;102508.28;12140313;19;20292;-85
2022/12/01 14:46:09;;;;;;;29.00;15.40;;;6.10;57.40;;;4.43;62.96;102506.59;12157144;19;20046;-85
2022/12/01 14:50:30;;;;;;;25.48;14.82;;;5.90;57.40;;;4.32;62.89;102487.59;12156419;19;20022;-85
2022/12/01 14:54:46;;;;;;;27.75;14.93;;;5.90;57.40;;;4.40;62.69;102499.69;12148789;19;20022;-86
2022/12/01 14:59:00;;;;;;;;;;;6.10;57.40;;;4.50;62.94;102517.78;12136222;19;20055;-85
2022/12/01 15:03:08;;;;;;;23.10;12.25;;;6.00;57.50;;;4.48;62.94;102503.97;12151937;19;20366;-85
2022/12/01 15:07:10;;;;;;;28.33;14.85;;;6.20;57.60;;;4.49;62.97;102500.53;12154690;19;20435;-85
2022/12/01 15:11:24;;;;;;;26.58;14.52;;;6.00;57.40;;;4.44;62.73;102496.22;12155911;19;20368;-85
2022/12/01 15:15:26;;;;;;;28.65;15.15;;;6.00;57.40;;;4.45;62.90;102476.38;12156721;19;20026;-85
2022/12/01 15:19:38;;;;;;;42.00;22.65;;;6.00;57.50;;;4.49;62.84;102491.06;12158083;19;20408;-85
2022/12/01 15:24:19;;;;;;;35.60;19.75;;;6.00;57.00;;;4.50;62.76;102503.09;12154297;19;20925;-85
2022/12/01 15:28:34;;;;;;;39.45;20.08;;;6.00;57.30;;;4.47;62.62;102508.28;12151063;19;20295;-85
2022/12/01 15:32:37;;;;;;;40.50;21.27;;;6.00;57.30;;;4.12;62.57;102438.50;12154624;19;20020;-86
2022/12/01 15:36:38;;;;;;;34.47;18.75;;;6.10;57.30;;;4.30;62.64;102466.94;12151867;19;20503;-85
2022/12/01 15:40:42;;;;;;;31.45;16.65;;;5.90;57.20;;;4.47;62.86;102503.13;12149862;19;20991;-85
2022/12/01 15:44:55;;;;;;;28.98;16.42;;;6.10;57.60;;;4.16;62.70;102446.25;12151114;19;20026;-85
2022/12/01 15:49:16;;;;;;;36.45;19.30;;;5.90;57.60;;;4.49;62.64;102500.53;12128670;19;20022;-85
2022/12/01 15:53:32;;;;;;;33.72;18.77;;;5.90;57.40;;;4.36;62.61;102479.00;12140307;19;20022;-85
2022/12/01 15:57:34;;;;;;;29.50;16.70;;;5.90;57.50;;;4.49;62.96;102498.81;12138693;19;20435;-85
2022/12/01 16:01:36;;;;;;;27.27;14.70;;;5.90;57.60;;;4.39;62.78;102490.19;12142760;19;20018;-85
2022/12/01 16:05:42;;;;;;;29.52;16.67;;;5.90;57.60;;;4.50;62.83;102497.94;12148296;19;20029;-85
2022/12/01 16:09:59;;;;;;;30.90;17.77;;;6.00;57.70;;;4.49;62.64;102503.13;12158478;19;20018;-85
2022/12/01 16:14:21;;;;;;;29.00;16.42;;;5.90;57.50;;;4.37;62.80;102485.88;12161493;19;20029;-85
2022/12/01 16:18:33;;;;;;;30.48;16.50;;;5.90;57.50;;;4.35;62.62;102488.47;12163090;19;20517;-85
2022/12/01 16:22:34;;;;;;;28.95;16.25;;;5.90;57.50;;;4.42;62.82;102499.66;12158240;19;20384;-85
2022/12/01 16:26:44;;;;;;;30.20;16.48;;;6.20;57.70;;;4.35;62.83;102491.06;12159648;19;20855;-85
2022/12/01 16:30:46;;;;;;;32.33;17.23;;;5.90;57.60;;;4.42;62.80;102505.69;12159517;19;20030;-85
2022/12/01 16:34:51;;;;;;;29.33;16.05;;;5.90;57.70;;;4.41;62.71;102496.22;12160938;19;20758;-85
2022/12/01 16:38:52;;;;;;;30.85;16.60;;;5.90;57.70;;;4.17;62.62;102457.47;12161540;19;20297;-85
2022/12/01 16:42:55;;;;;;;33.33;17.92;;;6.00;57.80;;;4.46;62.76;102495.38;12160788;19;20032;-85
2022/12/01 16:46:56;;;;;;;30.35;16.45;;;6.10;57.90;;;4.42;62.86;102502.25;12161164;19;20863;-85
2022/12/01 16:51:02;;;;;;;30.30;16.02;;;6.00;57.80;;;4.40;62.83;102498.81;12165229;19;20013;-85
2022/12/01 16:55:26;;;;;;;35.22;17.58;;;5.90;57.80;;;4.44;62.70;102503.13;12162591;19;20019;-85
2022/12/01 16:59:27;;;;;;;30.95;16.17;;;5.90;57.80;;;4.46;62.70;102509.16;12166518;19;20483;-85
2022/12/01 17:03:29;;;;;;;23.65;13.63;;;5.90;57.90;;;4.32;62.60;102480.72;12159156;19;20047;-85
2022/12/01 17:07:31;;;;;;;28.42;15.88;;;5.90;58.00;;;4.33;62.58;102482.44;12161744;19;20015;-85
2022/12/01 17:11:32;;;;;;;27.98;16.33;;;5.80;57.90;;;4.27;62.85;102469.53;12161999;19;20459;-85